AirNav   ProFlight Series 2 Aviation Headset
 
 572 users online  

8PA7 Lazzarini Heliport
Nazareth, Pennsylvania, USA

GOING TO NAZARETH?


FAA INFORMATION EFFECTIVE 16 JULY 2020

Location

FAA Identifier: 8PA7
Lat/Long: 40-47-47.0000N 075-21-27.0000W
40-47.783333N 075-21.450000W
40.7963889,-75.3575000
(estimated)
Elevation: 750 ft. / 229 m (estimated)
From city: 4 miles NW of NAZARETH, PA
Time zone: UTC -4 (UTC -5 during Standard Time)
Zip code: 18091

Heliport Operations

Heliport use: Private use. Permission required prior to landing
Activation date: 05/2017
Control tower: no
ARTCC: NEW YORK CENTER
FSS: WILLIAMSPORT FLIGHT SERVICE STATION
Attendance: 
Wind indicator: yes
Segmented circle: no

Heliport Communications

WX ASOS at ABE (9 nm SW): 126.975 (610-266-3579)
WX AWOS-3 at XLL (15 nm SW): 127.875 (610-231-3111)
WX AWOS-3PT at 22N (18 nm W): 119.350 (570-386-3423)

Nearby radio navigation aids

VOR radial/distance  VOR name  Freq  Var
FJCr057/6.1ALLENTOWN VORTAC117.5010W
ETXr058/19.7EAST TEXAS VOR/DME110.2009W
BWZr281/24.3BROADWAY VOR/DME114.2011W
STWr253/25.2STILLWATER VOR/DME109.6011W
SBJr305/30.8SOLBERG VOR/DME112.9010W
LVZr162/32.3WILKES-BARRE VORTAC111.6010W
PTWr024/35.7POTTSTOWN VORTAC116.5009W
ARDr338/38.5YARDLEY VOR/DME108.2010W

Heliport Services

Runway Information

Helipad H1

Dimensions: 100 x 100 ft. / 30 x 30 m
Surface: turf
Traffic pattern: leftleft

Heliport Ownership and Management from official FAA records

Ownership: Privately-owned
Owner: FRANK LAZZARINI
1201 SEIFERT RD
NAZARETH, PA 18064
Phone 9732737564
Manager: FRANK LAZZARINI
1201 SEIFERT RD
NAZARETH, PA 18064
Phone 9732737564

Additional Remarks

FOR CD CTC ALLENTOWN APCH AT 800-728-6322

Instrument Procedures

There are no published instrument procedures at 8PA7.

Some nearby airports with instrument procedures:

N43 - Braden Airpark (6 nm SE)
KABE - Lehigh Valley International Airport (9 nm SW)
KXLL - Allentown Queen City Municipal Airport (15 nm SW)
N53 - Stroudsburg-Pocono Airport (17 nm NE)
22N - Jake Arner Memorial Airport (18 nm W)
1N7 - Blairstown Airport (19 nm NE)
N85 - Alexandria Airport (20 nm SE)
 
Loc | Ops | Rwys | IFR | FBO | Links
Com | Nav | Svcs | Stats | Notes
Aerial photo
No photo
 
Airport distance calculator
Flying to Lazzarini Heliport? Find the distance to fly.

From to 8PA7

Sunrise and sunset
Times for 13-Aug-2020
 Local
(UTC-4)
 Zulu
(UTC)
Morning civil twilight05:4209:42
Sunrise06:1110:11
Sunset20:0100:01
Evening civil twilight20:3000:30

Current date and time
Zulu (UTC)  13-Aug-2020 05:36:28
Local (UTC-4)  13-Aug-2020 01:36:28
 
METAR
KABE 
10nm SW 
130451Z 00000KT 10SM CLR 23/21 A3008 RMK AO2 SLP183 T02280211 403220222
KXLL 
15nm SW 
130515Z AUTO 00000KT 10SM CLR 23/22 A3009 RMK AO2
K22N 
18nm W 
130515Z AUTO 00000KT 7SM CLR 20/20 A3011 RMK AO2
TAF
KABE 
10nm SW 
121727Z 1218/1318 VRB03KT P6SM SCT040 BKN150 FM130700 VRB02KT P6SM BKN040 TEMPO 1309/1312 5SM BR FM131200 VRB03KT P6SM VCSH BKN040
NOTAMs
Click for the latest NOTAMs
NOTAMs are issued by the DoD/FAA and will open in a separate window not controlled by AirNav.

 

 
 

Would you like to see your business listed on this page?

 If your business provides an interesting product or service to pilots, flight crews, aircraft, or users of the Lazzarini Heliport, you should consider listing it here.  To start the listing process, click on the button below
 
Add a business
 

Other Pages about Lazzarini Heliport

Update a link
 
Copyright © AirNav, LLC. All rights reserved. Privacy Policy  Contact